createdAt,value
2019-06-26T00:00:57.765Z,1006.70
2019-06-26T00:01:57.755Z,1006.68
2019-06-26T00:02:57.777Z,1006.65
2019-06-26T00:03:57.731Z,1006.64
2019-06-26T00:04:57.716Z,1006.67
2019-06-26T00:05:57.715Z,1006.68
2019-06-26T00:06:57.700Z,1006.65
2019-06-26T00:07:57.688Z,1006.67
2019-06-26T00:08:57.677Z,1006.68
2019-06-26T00:09:57.667Z,1006.64
2019-06-26T00:10:57.659Z,1006.68
2019-06-26T00:11:57.652Z,1006.69
2019-06-26T00:12:57.647Z,1006.62
2019-06-26T00:13:57.626Z,1006.67
2019-06-26T00:14:57.614Z,1006.68
2019-06-26T00:15:57.607Z,1006.68
2019-06-26T00:16:57.593Z,1006.70
2019-06-26T00:17:57.579Z,1006.70
2019-06-26T00:18:57.573Z,1006.72
2019-06-26T00:19:57.558Z,1006.71
2019-06-26T00:20:57.600Z,1006.71
2019-06-26T00:21:57.537Z,1006.70
2019-06-26T00:22:57.526Z,1006.74
2019-06-26T00:23:57.513Z,1006.70
2019-06-26T00:24:57.504Z,1006.73
2019-06-26T00:25:57.496Z,1006.71
2019-06-26T00:26:57.495Z,1006.74
2019-06-26T00:27:57.472Z,1006.75
2019-06-26T00:28:57.478Z,1006.76
2019-06-26T00:29:57.463Z,1006.74
2019-06-26T00:30:57.441Z,1006.78
2019-06-26T00:31:57.429Z,1006.77
2019-06-26T00:32:57.433Z,1006.80
2019-06-26T00:33:57.411Z,1006.77
2019-06-26T00:34:57.412Z,1006.77
2019-06-26T00:35:57.385Z,1006.75
2019-06-26T00:36:57.371Z,1006.78
2019-06-26T00:37:57.366Z,1006.83
2019-06-26T00:38:57.358Z,1006.86
2019-06-26T00:39:57.336Z,1006.87
2019-06-26T00:40:57.329Z,1006.81
2019-06-26T00:41:57.318Z,1006.84
2019-06-26T00:42:57.326Z,1006.89
2019-06-26T00:43:57.297Z,1006.90
2019-06-26T00:44:57.287Z,1006.87
2019-06-26T00:45:57.287Z,1006.85
2019-06-26T00:46:57.273Z,1006.90
2019-06-26T00:47:57.258Z,1006.85
2019-06-26T00:48:57.247Z,1006.86
2019-06-26T00:49:57.238Z,1006.87
2019-06-26T00:50:57.221Z,1006.90
2019-06-26T00:51:57.207Z,1006.94
2019-06-26T00:52:57.200Z,1006.94
2019-06-26T00:53:57.190Z,1006.93
2019-06-26T00:54:57.177Z,1006.99
2019-06-26T00:55:57.166Z,1006.94
2019-06-26T00:56:57.156Z,1006.94
2019-06-26T00:57:57.186Z,1006.97
2019-06-26T00:58:57.134Z,1006.98
2019-06-26T00:59:57.122Z,1007.00
2019-06-26T01:00:57.117Z,1007.04
2019-06-26T01:01:57.093Z,1007.00
2019-06-26T01:02:57.097Z,1007.03
2019-06-26T01:03:57.079Z,1007.02
2019-06-26T01:04:57.066Z,1006.99
2019-06-26T01:05:57.062Z,1007.02
2019-06-26T01:06:57.048Z,1007.07
2019-06-26T01:07:57.037Z,1007.07
2019-06-26T01:08:57.024Z,1007.09
2019-06-26T01:09:57.017Z,1007.09
2019-06-26T01:10:57.001Z,1007.08
2019-06-26T01:11:56.990Z,1007.12
2019-06-26T01:12:56.980Z,1007.09
2019-06-26T01:13:58.286Z,1007.09
2019-06-26T01:14:56.978Z,1007.07
2019-06-26T01:15:56.954Z,1007.10
2019-06-26T01:16:56.956Z,1007.07
2019-06-26T01:17:56.925Z,1007.07
2019-06-26T01:18:56.914Z,1007.07
2019-06-26T01:19:56.901Z,1007.05
2019-06-26T01:20:56.891Z,1007.08
2019-06-26T01:21:56.890Z,1007.07
2019-06-26T01:22:56.868Z,1007.06
2019-06-26T01:23:56.859Z,1007.09
2019-06-26T01:24:56.862Z,1007.07
2019-06-26T01:25:56.835Z,1007.05
2019-06-26T01:26:56.823Z,1007.06
2019-06-26T01:27:56.822Z,1007.08
2019-06-26T01:28:56.803Z,1007.05
2019-06-26T01:29:56.785Z,1007.06
2019-06-26T01:30:56.780Z,1007.06
2019-06-26T01:31:56.772Z,1007.09
2019-06-26T01:32:56.758Z,1007.07
2019-06-26T01:33:56.753Z,1007.06
2019-06-26T01:34:56.735Z,1007.09
2019-06-26T01:35:56.731Z,1007.10
2019-06-26T01:36:56.715Z,1007.09
2019-06-26T01:37:56.704Z,1007.15
2019-06-26T01:38:56.698Z,1007.14
2019-06-26T01:39:56.695Z,1007.07
2019-06-26T01:40:56.664Z,1007.12
2019-06-26T01:41:56.659Z,1007.10
2019-06-26T01:42:56.649Z,1007.09
2019-06-26T01:43:56.636Z,1007.15
2019-06-26T01:44:56.623Z,1007.06
2019-06-26T01:45:56.614Z,1007.10
2019-06-26T01:46:56.600Z,1007.05
2019-06-26T01:47:56.591Z,1007.06
2019-06-26T01:48:56.583Z,1007.06
2019-06-26T01:49:56.572Z,1007.03
2019-06-26T01:50:56.563Z,1007.04
2019-06-26T01:51:56.550Z,1007.05
2019-06-26T01:52:56.536Z,1007.04
2019-06-26T01:53:56.526Z,1007.08
2019-06-26T01:54:56.516Z,1007.05
2019-06-26T01:55:56.502Z,1007.02
2019-06-26T01:56:56.496Z,1007.07
2019-06-26T01:57:56.485Z,1007.05
2019-06-26T01:58:56.470Z,1007.04
2019-06-26T01:59:56.470Z,1007.09
2019-06-26T02:00:56.444Z,1007.06
2019-06-26T02:01:56.439Z,1007.04
2019-06-26T02:02:56.430Z,1007.08
2019-06-26T02:03:56.425Z,1007.05
2019-06-26T02:04:56.400Z,1007.08
2019-06-26T02:05:56.391Z,1007.05
2019-06-26T02:06:56.381Z,1007.04
2019-06-26T02:07:56.368Z,1007.03
2019-06-26T02:08:56.359Z,1007.09
2019-06-26T02:09:56.345Z,1007.05
2019-06-26T02:10:56.335Z,1007.08
2019-06-26T02:11:56.386Z,1007.05
2019-06-26T02:12:56.462Z,1007.03
2019-06-26T02:13:56.299Z,1007.07
2019-06-26T02:14:56.291Z,1007.09
2019-06-26T02:15:56.281Z,1007.06
2019-06-26T02:16:56.269Z,1007.10
2019-06-26T02:17:56.263Z,1007.06
2019-06-26T02:18:56.247Z,1007.05
2019-06-26T02:19:56.235Z,1007.06
2019-06-26T02:20:56.233Z,1007.02
2019-06-26T02:21:56.220Z,1007.04
2019-06-26T02:22:56.204Z,1007.00
2019-06-26T02:23:56.189Z,1007.03
2019-06-26T02:24:56.192Z,1007.06
2019-06-26T02:25:56.171Z,1007.09
2019-06-26T02:26:56.147Z,1007.05
2019-06-26T02:27:56.145Z,1007.04
2019-06-26T02:28:56.133Z,1007.12
2019-06-26T02:29:56.173Z,1007.06
2019-06-26T02:30:56.113Z,1007.06
2019-06-26T02:31:56.099Z,1007.07
2019-06-26T02:32:56.120Z,1007.11
2019-06-26T02:33:56.077Z,1007.09
2019-06-26T02:34:56.067Z,1007.09
2019-06-26T02:35:56.060Z,1007.09
2019-06-26T02:36:56.078Z,1007.11
2019-06-26T02:37:56.031Z,1007.10
2019-06-26T02:38:56.020Z,1007.14
2019-06-26T02:39:56.017Z,1007.07
2019-06-26T02:40:55.999Z,1007.09
2019-06-26T02:41:55.994Z,1007.09
2019-06-26T02:42:55.974Z,1007.09
2019-06-26T02:43:55.961Z,1007.08
2019-06-26T02:44:55.952Z,1007.11
2019-06-26T02:45:55.943Z,1007.11
2019-06-26T02:47:13.602Z,1007.13
2019-06-26T02:47:55.936Z,1007.15
2019-06-26T02:48:55.913Z,1007.15
2019-06-26T02:49:55.904Z,1007.14
2019-06-26T02:50:55.884Z,1007.14
2019-06-26T02:51:55.871Z,1007.14
2019-06-26T02:52:55.873Z,1007.16
2019-06-26T02:53:55.848Z,1007.17
2019-06-26T02:54:55.844Z,1007.16
2019-06-26T02:55:55.823Z,1007.15
2019-06-26T02:56:55.816Z,1007.16
2019-06-26T02:57:55.805Z,1007.17
2019-06-26T02:58:55.790Z,1007.17
2019-06-26T02:59:55.778Z,1007.16
2019-06-26T03:00:55.784Z,1007.21
2019-06-26T03:01:55.803Z,1007.22
2019-06-26T03:02:55.743Z,1007.21
2019-06-26T03:03:55.733Z,1007.21
2019-06-26T03:04:55.717Z,1007.22
2019-06-26T03:05:55.716Z,1007.22
2019-06-26T03:06:55.698Z,1007.21
2019-06-26T03:07:55.690Z,1007.21
2019-06-26T03:08:55.689Z,1007.21
2019-06-26T03:09:55.656Z,1007.19
2019-06-26T03:10:55.654Z,1007.21
2019-06-26T03:11:55.635Z,1007.21
2019-06-26T03:12:55.626Z,1007.23
2019-06-26T03:13:55.615Z,1007.23
2019-06-26T03:15:08.426Z,1007.29
2019-06-26T03:15:55.582Z,1007.24
2019-06-26T03:16:55.586Z,1007.27
2019-06-26T03:17:55.980Z,1007.29
2019-06-26T03:18:55.595Z,1007.28
2019-06-26T03:19:55.543Z,1007.28
2019-06-26T03:20:55.589Z,1007.25
2019-06-26T03:21:55.522Z,1007.27
2019-06-26T03:22:55.510Z,1007.27
2019-06-26T03:23:55.496Z,1007.23
2019-06-26T03:24:55.484Z,1007.27
2019-06-26T03:25:55.481Z,1007.32
2019-06-26T03:26:55.475Z,1007.35
2019-06-26T03:27:55.451Z,1007.31
2019-06-26T03:28:55.454Z,1007.32
2019-06-26T03:29:55.426Z,1007.32
2019-06-26T03:30:55.447Z,1007.34
2019-06-26T03:31:55.403Z,1007.31
2019-06-26T03:32:55.388Z,1007.32
2019-06-26T03:33:55.379Z,1007.31
2019-06-26T03:34:55.376Z,1007.38
2019-06-26T03:35:55.358Z,1007.37
2019-06-26T03:36:55.346Z,1007.39
2019-06-26T03:37:55.369Z,1007.40
2019-06-26T03:38:55.343Z,1007.38
2019-06-26T03:39:55.308Z,1007.41
2019-06-26T03:40:55.294Z,1007.45
2019-06-26T03:41:55.302Z,1007.47
2019-06-26T03:42:55.277Z,1007.44
2019-06-26T03:43:55.261Z,1007.45
2019-06-26T03:44:55.257Z,1007.43
2019-06-26T03:45:55.240Z,1007.49
2019-06-26T03:46:55.240Z,1007.48
2019-06-26T03:47:55.214Z,1007.47
2019-06-26T03:48:55.203Z,1007.46
2019-06-26T03:49:55.204Z,1007.46
2019-06-26T03:50:55.180Z,1007.45
2019-06-26T03:51:55.187Z,1007.48
2019-06-26T03:52:55.158Z,1007.51
2019-06-26T03:53:55.149Z,1007.49
2019-06-26T03:54:55.141Z,1007.50
2019-06-26T03:55:55.129Z,1007.49
2019-06-26T03:56:55.118Z,1007.48
2019-06-26T03:57:55.194Z,1007.41
2019-06-26T03:58:55.094Z,1007.44
2019-06-26T03:59:55.142Z,1007.48
2019-06-26T04:00:55.062Z,1007.47
2019-06-26T04:01:55.056Z,1007.49
2019-06-26T04:02:55.052Z,1007.49
2019-06-26T04:03:57.362Z,1007.52
2019-06-26T04:04:55.015Z,1007.56
2019-06-26T04:05:55.009Z,1007.53
2019-06-26T04:06:54.995Z,1007.55
2019-06-26T04:07:54.982Z,1007.59
2019-06-26T04:08:54.997Z,1007.53
2019-06-26T04:09:54.962Z,1007.55
2019-06-26T04:10:54.954Z,1007.57
2019-06-26T04:11:54.944Z,1007.54
2019-06-26T04:12:54.928Z,1007.55
2019-06-26T04:13:54.917Z,1007.55
2019-06-26T04:14:54.907Z,1007.58
2019-06-26T04:15:54.897Z,1007.57
2019-06-26T04:16:54.886Z,1007.62
2019-06-26T04:17:54.895Z,1007.59
2019-06-26T04:18:54.862Z,1007.59
2019-06-26T04:19:54.853Z,1007.59
2019-06-26T04:20:54.843Z,1007.58
2019-06-26T04:21:54.832Z,1007.62
2019-06-26T04:22:54.839Z,1007.61
2019-06-26T04:23:54.805Z,1007.67
2019-06-26T04:24:54.823Z,1007.69
2019-06-26T04:25:54.794Z,1007.72
2019-06-26T04:26:54.789Z,1007.74
2019-06-26T04:27:54.779Z,1007.77
2019-06-26T04:28:54.765Z,1007.77
2019-06-26T04:29:54.756Z,1007.72
2019-06-26T04:30:54.741Z,1007.74
2019-06-26T04:31:54.730Z,1007.70
2019-06-26T04:32:54.726Z,1007.67
2019-06-26T04:33:54.720Z,1007.69
2019-06-26T04:34:54.711Z,1007.68
2019-06-26T04:35:54.696Z,1007.69
2019-06-26T04:36:54.688Z,1007.69
2019-06-26T04:37:54.678Z,1007.71
2019-06-26T04:38:54.669Z,1007.71
2019-06-26T04:39:54.669Z,1007.69
2019-06-26T04:40:54.673Z,1007.74
2019-06-26T04:41:54.644Z,1007.76
2019-06-26T04:42:54.637Z,1007.78
2019-06-26T04:43:54.624Z,1007.78
2019-06-26T04:44:54.616Z,1007.85
2019-06-26T04:45:58.472Z,1007.84
2019-06-26T04:46:54.599Z,1007.83
2019-06-26T04:47:54.591Z,1007.84
2019-06-26T04:48:54.584Z,1007.84
2019-06-26T04:49:54.574Z,1007.87
2019-06-26T04:50:54.558Z,1007.87
2019-06-26T04:51:54.561Z,1007.87
2019-06-26T04:52:54.550Z,1007.90
2019-06-26T04:53:55.764Z,1007.90
2019-06-26T04:54:54.534Z,1007.88
2019-06-26T04:55:54.534Z,1007.87
2019-06-26T04:56:54.536Z,1007.89
2019-06-26T04:57:54.504Z,1007.94
2019-06-26T04:58:54.507Z,1007.94
2019-06-26T04:59:54.495Z,1007.95
2019-06-26T05:00:54.490Z,1007.90
2019-06-26T05:01:54.477Z,1007.94
2019-06-26T05:02:54.472Z,1007.93
2019-06-26T05:03:54.470Z,1007.95
2019-06-26T05:04:54.467Z,1007.92
2019-06-26T05:05:54.449Z,1007.93
2019-06-26T05:06:54.442Z,1007.93
2019-06-26T05:07:54.435Z,1007.95
2019-06-26T05:08:54.428Z,1007.94
2019-06-26T05:09:54.421Z,1007.95
2019-06-26T05:10:54.412Z,1007.98
2019-06-26T05:11:54.406Z,1007.96
2019-06-26T05:12:54.398Z,1007.94
2019-06-26T05:13:54.394Z,1007.94
2019-06-26T05:14:54.387Z,1007.95
2019-06-26T05:15:54.381Z,1007.98
2019-06-26T05:16:54.376Z,1007.96
2019-06-26T05:17:54.365Z,1007.96
2019-06-26T05:18:54.360Z,1008.02
2019-06-26T05:19:54.350Z,1008.01
2019-06-26T05:20:54.350Z,1008.05
2019-06-26T05:21:54.343Z,1008.02
2019-06-26T05:22:54.355Z,1008.05
2019-06-26T05:23:54.328Z,1008.07
2019-06-26T05:24:54.323Z,1008.07
2019-06-26T05:25:54.317Z,1008.06
2019-06-26T05:26:54.310Z,1008.08
2019-06-26T05:27:54.306Z,1008.03
2019-06-26T05:28:54.298Z,1008.07
2019-06-26T05:29:54.590Z,1008.03
2019-06-26T05:30:54.290Z,1008.03
2019-06-26T05:31:54.282Z,1008.05
2019-06-26T05:32:54.279Z,1008.07
2019-06-26T05:33:54.276Z,1008.06
2019-06-26T05:34:54.272Z,1008.09
2019-06-26T05:35:54.265Z,1008.09
2019-06-26T05:36:54.262Z,1008.11
2019-06-26T05:37:54.253Z,1008.09
2019-06-26T05:38:54.248Z,1008.13
2019-06-26T05:39:54.889Z,1008.09
2019-06-26T05:40:54.240Z,1008.08
2019-06-26T05:41:54.237Z,1008.14
2019-06-26T05:42:54.230Z,1008.11
2019-06-26T05:43:54.227Z,1008.14
2019-06-26T05:44:54.220Z,1008.12
2019-06-26T05:45:54.218Z,1008.16
2019-06-26T05:46:54.212Z,1008.17
2019-06-26T05:47:54.215Z,1008.21
2019-06-26T05:48:54.206Z,1008.22
2019-06-26T05:49:54.206Z,1008.17
2019-06-26T05:50:54.199Z,1008.21
2019-06-26T05:51:54.198Z,1008.18
2019-06-26T05:52:54.196Z,1008.23
2019-06-26T05:53:54.189Z,1008.17
2019-06-26T05:54:54.186Z,1008.20
2019-06-26T05:55:54.183Z,1008.23
2019-06-26T05:56:54.176Z,1008.20
2019-06-26T05:57:54.257Z,1008.20
2019-06-26T05:58:54.172Z,1008.19
2019-06-26T05:59:54.168Z,1008.21
2019-06-26T06:00:54.165Z,1008.19
2019-06-26T06:01:54.161Z,1008.20
2019-06-26T06:02:54.307Z,1008.20
2019-06-26T06:03:54.156Z,1008.21
2019-06-26T06:04:54.162Z,1008.22
2019-06-26T06:05:54.152Z,1008.21
2019-06-26T06:06:54.149Z,1008.26
2019-06-26T06:07:54.142Z,1008.27
2019-06-26T06:08:54.164Z,1008.26
2019-06-26T06:09:54.139Z,1008.27
2019-06-26T06:10:57.871Z,1008.30
2019-06-26T06:11:54.137Z,1008.25
2019-06-26T06:12:54.132Z,1008.25
2019-06-26T06:13:54.135Z,1008.28
2019-06-26T06:14:54.134Z,1008.26
2019-06-26T06:15:54.130Z,1008.28
2019-06-26T06:16:54.123Z,1008.30
2019-06-26T06:17:54.127Z,1008.30
2019-06-26T06:18:54.118Z,1008.28
2019-06-26T06:19:54.144Z,1008.27
2019-06-26T06:20:54.120Z,1008.28
2019-06-26T06:21:54.119Z,1008.31
2019-06-26T06:22:54.114Z,1008.30
2019-06-26T06:23:54.109Z,1008.34
2019-06-26T06:24:54.109Z,1008.37
2019-06-26T06:25:54.111Z,1008.33
2019-06-26T06:26:54.126Z,1008.37
2019-06-26T06:27:54.113Z,1008.38
2019-06-26T06:28:54.107Z,1008.38
2019-06-26T06:29:54.108Z,1008.41
2019-06-26T06:30:54.106Z,1008.41
2019-06-26T06:31:54.106Z,1008.36
2019-06-26T06:32:54.101Z,1008.40
2019-06-26T06:33:54.102Z,1008.46
2019-06-26T06:34:54.099Z,1008.39
2019-06-26T06:35:54.101Z,1008.50
2019-06-26T06:36:54.099Z,1008.45
2019-06-26T06:37:54.099Z,1008.46
2019-06-26T06:38:54.097Z,1008.51
2019-06-26T06:39:54.101Z,1008.56
2019-06-26T06:40:54.098Z,1008.58
2019-06-26T06:41:54.097Z,1008.57
2019-06-26T06:42:54.101Z,1008.55
2019-06-26T06:43:54.100Z,1008.58
2019-06-26T06:44:54.109Z,1008.53
2019-06-26T06:45:54.121Z,1008.54
2019-06-26T06:47:03.717Z,1008.53
2019-06-26T06:47:54.102Z,1008.56
2019-06-26T06:48:54.111Z,1008.55
2019-06-26T06:49:54.105Z,1008.56
2019-06-26T06:50:54.113Z,1008.59
2019-06-26T06:51:54.109Z,1008.62
2019-06-26T06:52:54.108Z,1008.64
2019-06-26T06:53:54.137Z,1008.61
2019-06-26T06:54:54.112Z,1008.60
2019-06-26T06:55:54.113Z,1008.63
2019-06-26T06:56:54.113Z,1008.62
2019-06-26T06:57:54.120Z,1008.63
2019-06-26T06:58:54.125Z,1008.61
2019-06-26T06:59:54.125Z,1008.65
2019-06-26T07:00:54.127Z,1008.66
2019-06-26T07:01:54.125Z,1008.65
2019-06-26T07:02:54.133Z,1008.70
2019-06-26T07:03:54.132Z,1008.69
2019-06-26T07:04:54.133Z,1008.74
2019-06-26T07:05:54.134Z,1008.74
2019-06-26T07:06:54.143Z,1008.75
2019-06-26T07:07:54.142Z,1008.79
2019-06-26T07:08:54.146Z,1008.78
2019-06-26T07:09:54.148Z,1008.77
2019-06-26T07:10:54.149Z,1008.80
2019-06-26T07:11:54.158Z,1008.81
2019-06-26T07:12:54.155Z,1008.83
2019-06-26T07:13:54.161Z,1008.88
2019-06-26T07:14:54.168Z,1008.82
2019-06-26T07:15:54.170Z,1008.84
2019-06-26T07:16:54.169Z,1008.82
2019-06-26T07:17:54.175Z,1008.80
2019-06-26T07:18:54.179Z,1008.83
2019-06-26T07:19:54.183Z,1008.89
2019-06-26T07:20:54.181Z,1008.93
2019-06-26T07:21:54.196Z,1008.90
2019-06-26T07:22:54.195Z,1008.93
2019-06-26T07:23:54.202Z,1008.89
2019-06-26T07:24:54.203Z,1008.92
2019-06-26T07:25:54.210Z,1008.93
2019-06-26T07:26:54.213Z,1008.96
2019-06-26T07:27:54.218Z,1008.90
2019-06-26T07:28:54.222Z,1008.97
2019-06-26T07:29:54.225Z,1008.95
2019-06-26T07:30:54.227Z,1008.92
2019-06-26T07:31:54.241Z,1008.96
2019-06-26T07:32:54.249Z,1009.00
2019-06-26T07:33:55.647Z,1008.98
2019-06-26T07:34:54.262Z,1008.99
2019-06-26T07:35:54.265Z,1008.96
2019-06-26T07:36:54.271Z,1008.98
2019-06-26T07:37:54.265Z,1008.99
2019-06-26T07:38:54.277Z,1009.03
2019-06-26T07:39:57.788Z,1008.96
2019-06-26T07:40:54.280Z,1008.98
2019-06-26T07:41:54.294Z,1008.98
2019-06-26T07:42:54.291Z,1008.99
2019-06-26T07:43:54.342Z,1009.00
2019-06-26T07:44:54.304Z,1009.07
2019-06-26T07:45:54.341Z,1009.09
2019-06-26T07:46:54.315Z,1009.07
2019-06-26T07:47:54.320Z,1009.06
2019-06-26T07:48:57.457Z,1009.12
2019-06-26T07:49:54.333Z,1009.10
2019-06-26T07:50:54.344Z,1009.11
2019-06-26T07:51:54.346Z,1009.08
2019-06-26T07:52:54.370Z,1009.06
2019-06-26T07:53:54.360Z,1009.06
2019-06-26T07:54:54.365Z,1009.10
2019-06-26T07:55:54.380Z,1009.06
2019-06-26T07:56:54.388Z,1009.04
2019-06-26T07:57:54.388Z,1009.03
2019-06-26T07:58:54.425Z,1009.01
2019-06-26T07:59:54.472Z,1008.97
2019-06-26T08:00:54.399Z,1008.99
2019-06-26T08:01:54.411Z,1009.04
2019-06-26T08:02:54.418Z,1009.01
2019-06-26T08:03:54.448Z,1009.00
2019-06-26T08:04:54.424Z,1008.97
2019-06-26T08:05:54.443Z,1009.01
2019-06-26T08:06:54.447Z,1009.01
2019-06-26T08:07:54.441Z,1009.04
2019-06-26T08:08:54.485Z,1009.08
2019-06-26T08:09:54.543Z,1009.06
2019-06-26T08:10:54.529Z,1009.07
2019-06-26T08:11:54.467Z,1009.09
2019-06-26T08:12:54.475Z,1009.02
2019-06-26T08:13:54.479Z,1009.03
2019-06-26T08:14:54.487Z,1009.03
2019-06-26T08:15:54.504Z,1009.03
2019-06-26T08:16:54.509Z,1009.00
2019-06-26T08:18:00.713Z,1009.03
2019-06-26T08:18:54.515Z,1009.07
2019-06-26T08:19:54.527Z,1009.09
2019-06-26T08:21:10.967Z,1009.09
2019-06-26T08:21:54.537Z,1009.10
2019-06-26T08:22:54.542Z,1009.09
2019-06-26T08:23:54.546Z,1009.14
2019-06-26T08:24:54.559Z,1009.06
2019-06-26T08:25:54.565Z,1009.06
2019-06-26T08:26:54.567Z,1009.07
2019-06-26T08:27:54.576Z,1009.08
2019-06-26T08:28:54.581Z,1009.11
2019-06-26T08:29:54.587Z,1009.14
2019-06-26T08:30:54.597Z,1009.07
2019-06-26T08:31:54.619Z,1009.06
2019-06-26T08:32:54.614Z,1009.02
2019-06-26T08:33:54.616Z,1009.06
2019-06-26T08:34:54.621Z,1009.03
2019-06-26T08:35:54.676Z,1009.02
2019-06-26T08:36:54.635Z,1009.02
2019-06-26T08:38:08.945Z,1009.01
2019-06-26T08:38:54.655Z,1009.03
2019-06-26T08:39:54.659Z,1009.03
2019-06-26T08:40:54.675Z,1009.02
2019-06-26T08:41:54.673Z,1009.03
2019-06-26T08:42:54.683Z,1009.06
2019-06-26T08:43:54.686Z,1009.07
2019-06-26T08:44:54.696Z,1009.04
2019-06-26T08:45:54.704Z,1009.04
2019-06-26T08:46:54.708Z,1009.07
2019-06-26T08:47:54.716Z,1009.08
2019-06-26T08:48:54.725Z,1009.05
2019-06-26T08:49:54.735Z,1009.04
2019-06-26T08:50:54.746Z,1009.03
2019-06-26T08:51:54.749Z,1008.98
2019-06-26T08:52:54.754Z,1009.02
2019-06-26T08:53:54.770Z,1009.01
2019-06-26T08:54:54.784Z,1009.09
2019-06-26T08:55:54.778Z,1009.06
2019-06-26T08:56:54.800Z,1009.07
2019-06-26T08:57:54.796Z,1009.06
2019-06-26T08:58:54.803Z,1009.07
2019-06-26T08:59:54.809Z,1009.05
2019-06-26T09:00:54.818Z,1009.07
2019-06-26T09:01:54.828Z,1009.02
2019-06-26T09:02:54.836Z,1009.01
2019-06-26T09:03:54.918Z,1009.05
2019-06-26T09:04:54.851Z,1009.03
2019-06-26T09:05:54.863Z,1009.04
2019-06-26T09:06:54.870Z,1009.06
2019-06-26T09:07:54.894Z,1009.05
2019-06-26T09:08:54.886Z,1009.06
2019-06-26T09:09:54.896Z,1009.08
2019-06-26T09:10:54.953Z,1009.07
2019-06-26T09:11:54.921Z,1009.08
2019-06-26T09:12:54.931Z,1009.10
2019-06-26T09:13:54.929Z,1009.05
2019-06-26T09:14:54.953Z,1009.08
2019-06-26T09:15:54.946Z,1009.11
2019-06-26T09:16:54.961Z,1009.10
2019-06-26T09:17:54.970Z,1009.08
2019-06-26T09:18:54.976Z,1009.12
2019-06-26T09:19:54.992Z,1009.08
2019-06-26T09:20:54.987Z,1009.11
2019-06-26T09:21:54.994Z,1009.11
2019-06-26T09:22:55.033Z,1009.13
2019-06-26T09:23:55.009Z,1009.11
2019-06-26T09:24:55.018Z,1009.17
2019-06-26T09:25:55.024Z,1009.13
2019-06-26T09:26:55.035Z,1009.15
2019-06-26T09:27:55.042Z,1009.15
2019-06-26T09:28:55.063Z,1009.15
2019-06-26T09:29:55.057Z,1009.15
2019-06-26T09:30:55.093Z,1009.11
2019-06-26T09:31:55.073Z,1009.11
2019-06-26T09:32:55.102Z,1009.14
2019-06-26T09:33:55.088Z,1009.14
2019-06-26T09:34:55.100Z,1009.14
2019-06-26T09:35:55.105Z,1009.13
2019-06-26T09:36:55.116Z,1009.12
2019-06-26T09:37:55.137Z,1009.13
2019-06-26T09:38:57.845Z,1009.17
2019-06-26T09:39:55.139Z,1009.11
2019-06-26T09:40:55.148Z,1009.11
2019-06-26T09:41:55.175Z,1009.08
2019-06-26T09:42:55.164Z,1009.17
2019-06-26T09:43:55.188Z,1009.16
2019-06-26T09:44:55.193Z,1009.22
2019-06-26T09:45:55.196Z,1009.22
2019-06-26T09:46:55.201Z,1009.21
2019-06-26T09:47:55.208Z,1009.23
2019-06-26T09:48:55.215Z,1009.26
2019-06-26T09:49:55.231Z,1009.27
2019-06-26T09:50:55.245Z,1009.26
2019-06-26T09:51:55.279Z,1009.28
2019-06-26T09:52:55.251Z,1009.27
2019-06-26T09:53:55.303Z,1009.25
2019-06-26T09:54:55.319Z,1009.22
2019-06-26T09:55:55.276Z,1009.20
2019-06-26T09:56:55.285Z,1009.21
2019-06-26T09:57:55.294Z,1009.21
2019-06-26T09:58:55.300Z,1009.20
2019-06-26T09:59:55.326Z,1009.17
2019-06-26T10:00:55.326Z,1009.17
2019-06-26T10:01:55.335Z,1009.15
2019-06-26T10:02:55.332Z,1009.13
2019-06-26T10:03:55.339Z,1009.14
2019-06-26T10:04:55.345Z,1009.14
2019-06-26T10:05:55.355Z,1009.15
2019-06-26T10:06:55.364Z,1009.13
2019-06-26T10:07:55.430Z,1009.10
2019-06-26T10:08:55.396Z,1009.07
2019-06-26T10:09:55.386Z,1009.09
2019-06-26T10:10:55.395Z,1009.09
2019-06-26T10:11:55.403Z,1009.11
2019-06-26T10:12:55.408Z,1009.04
2019-06-26T10:13:55.420Z,1009.08
2019-06-26T10:14:55.432Z,1009.05
2019-06-26T10:15:55.432Z,1009.07
2019-06-26T10:16:55.439Z,1009.05
2019-06-26T10:17:55.450Z,1009.03
2019-06-26T10:19:09.674Z,1009.06
2019-06-26T10:19:55.488Z,1009.12
2019-06-26T10:20:55.471Z,1009.07
2019-06-26T10:21:55.480Z,1009.13
2019-06-26T10:22:55.509Z,1009.18
2019-06-26T10:23:55.498Z,1009.20
2019-06-26T10:24:55.504Z,1009.24
2019-06-26T10:25:55.545Z,1009.27
2019-06-26T10:26:55.575Z,1009.22
2019-06-26T10:27:55.538Z,1009.21
2019-06-26T10:28:55.549Z,1009.25
2019-06-26T10:29:55.629Z,1009.25
2019-06-26T10:30:55.550Z,1009.20
2019-06-26T10:31:55.583Z,1009.23
2019-06-26T10:32:55.567Z,1009.21
2019-06-26T10:33:55.574Z,1009.22
2019-06-26T10:34:55.585Z,1009.25
2019-06-26T10:35:55.596Z,1009.24
2019-06-26T10:36:55.595Z,1009.24
2019-06-26T10:37:55.607Z,1009.29
2019-06-26T10:38:55.614Z,1009.25
2019-06-26T10:39:55.620Z,1009.25
2019-06-26T10:40:55.630Z,1009.22
2019-06-26T10:41:55.639Z,1009.28
2019-06-26T10:42:55.647Z,1009.26
2019-06-26T10:43:55.658Z,1009.21
2019-06-26T10:44:55.684Z,1009.21
2019-06-26T10:45:55.674Z,1009.23
2019-06-26T10:46:55.679Z,1009.24
2019-06-26T10:47:55.687Z,1009.24
2019-06-26T10:48:55.696Z,1009.25
2019-06-26T10:49:55.713Z,1009.28
2019-06-26T10:50:58.766Z,1009.22
2019-06-26T10:51:55.736Z,1009.23
2019-06-26T10:52:55.731Z,1009.27
2019-06-26T10:53:55.743Z,1009.25
2019-06-26T10:54:55.747Z,1009.27
2019-06-26T10:55:55.756Z,1009.24
2019-06-26T10:56:55.761Z,1009.31
2019-06-26T10:57:55.771Z,1009.23
2019-06-26T10:58:55.778Z,1009.22
2019-06-26T10:59:56.093Z,1009.22
2019-06-26T11:00:55.791Z,1009.24
2019-06-26T11:01:55.801Z,1009.22
2019-06-26T11:02:55.814Z,1009.19
2019-06-26T11:03:55.817Z,1009.19
2019-06-26T11:04:55.830Z,1009.17
2019-06-26T11:05:55.838Z,1009.15
2019-06-26T11:06:55.853Z,1009.11
2019-06-26T11:07:55.846Z,1009.09
2019-06-26T11:08:55.881Z,1009.07
2019-06-26T11:09:55.877Z,1009.11
2019-06-26T11:10:55.878Z,1009.09
2019-06-26T11:11:55.873Z,1009.08
2019-06-26T11:12:55.879Z,1009.09
2019-06-26T11:13:55.887Z,1009.08
2019-06-26T11:14:55.894Z,1009.07
2019-06-26T11:15:55.906Z,1009.00
2019-06-26T11:16:55.910Z,1009.02
2019-06-26T11:17:55.915Z,1009.03
2019-06-26T11:18:55.951Z,1009.01
2019-06-26T11:19:55.939Z,1009.05
2019-06-26T11:20:55.961Z,1008.97
2019-06-26T11:21:55.941Z,1008.96
2019-06-26T11:22:55.951Z,1008.90
2019-06-26T11:23:55.962Z,1008.90
2019-06-26T11:24:55.966Z,1008.88
2019-06-26T11:25:55.971Z,1008.88
2019-06-26T11:26:55.978Z,1008.87
2019-06-26T11:27:55.990Z,1008.85
2019-06-26T11:28:56.002Z,1008.86
2019-06-26T11:29:56.062Z,1008.85
2019-06-26T11:30:56.009Z,1008.86
2019-06-26T11:31:56.020Z,1008.82
2019-06-26T11:32:56.022Z,1008.79
2019-06-26T11:33:56.029Z,1008.81
2019-06-26T11:34:56.043Z,1008.81
2019-06-26T11:35:56.041Z,1008.83
2019-06-26T11:37:03.887Z,1008.84
2019-06-26T11:37:56.061Z,1008.88
2019-06-26T11:38:56.062Z,1008.88
2019-06-26T11:39:56.067Z,1008.84
2019-06-26T11:40:56.073Z,1008.80
2019-06-26T11:41:56.086Z,1008.82
2019-06-26T11:42:56.120Z,1008.79
2019-06-26T11:43:56.098Z,1008.79
2019-06-26T11:44:56.107Z,1008.76
2019-06-26T11:45:56.109Z,1008.78
2019-06-26T11:46:56.116Z,1008.75
2019-06-26T11:47:56.125Z,1008.72
2019-06-26T11:48:56.164Z,1008.73
2019-06-26T11:50:00.206Z,1008.71
2019-06-26T11:50:56.142Z,1008.72
2019-06-26T11:51:56.168Z,1008.69
2019-06-26T11:52:56.154Z,1008.66
2019-06-26T11:53:59.022Z,1008.69
2019-06-26T11:55:02.716Z,1008.65
2019-06-26T11:55:56.177Z,1008.65
2019-06-26T11:56:56.180Z,1008.60
2019-06-26T11:57:56.202Z,1008.61
2019-06-26T11:58:56.196Z,1008.63
2019-06-26T11:59:56.199Z,1008.60
2019-06-26T12:00:56.219Z,1008.59
2019-06-26T12:01:56.250Z,1008.61
2019-06-26T12:02:56.217Z,1008.58
2019-06-26T12:03:56.226Z,1008.62
2019-06-26T12:04:56.286Z,1008.65
2019-06-26T12:06:12.022Z,1008.56